Time;durP1;ratioP1;P1;durP2;ratioP2;P2;SDS_P1;SDS_P2;PMS_P1;PMS_P2;Temp;Humidity;BMP_temperature;BMP_pressure;BME280_temperature;BME280_humidity;BME280_pressure;Samples;Min_cycle;Max_cycle;Signal;HPM_P1;HPM_P2
2022/03/07 00:00:26;;;;;;;4.70;2.17;;;0.20;99.90;;;;;;5065906;28;20018;-73
2022/03/07 00:02:52;;;;;;;8.35;2.20;;;0.20;99.90;;;;;;5045615;28;20028;-73
2022/03/07 00:05:18;;;;;;;8.63;2.22;;;0.20;99.90;;;;;;5036228;28;20116;-73
2022/03/07 00:07:44;;;;;;;9.50;2.65;;;0.10;99.90;;;;;;5034112;28;20021;-73
2022/03/07 00:10:10;;;;;;;5.85;2.38;;;0.00;99.90;;;;;;5032334;28;20021;-73
2022/03/07 00:12:35;;;;;;;4.97;1.70;;;0.00;99.90;;;;;;5033673;28;20382;-73
2022/03/07 00:15:01;;;;;;;4.65;1.85;;;0.00;99.90;;;;;;5033882;28;20032;-73
2022/03/07 00:17:26;;;;;;;6.50;2.22;;;-0.20;99.90;;;;;;5032588;28;20025;-73
2022/03/07 00:19:52;;;;;;;3.92;1.83;;;-0.20;99.90;;;;;;5052182;28;20028;-73
2022/03/07 00:22:18;;;;;;;5.45;1.88;;;-0.30;99.90;;;;;;5053513;28;20530;-73
2022/03/07 00:24:43;;;;;;;7.43;2.42;;;-0.30;99.90;;;;;;5052128;28;20074;-73
2022/03/07 00:27:09;;;;;;;5.25;2.10;;;-0.30;99.90;;;;;;5053586;28;20398;-73
2022/03/07 00:29:34;;;;;;;7.60;2.67;;;-0.30;99.90;;;;;;5053460;28;20021;-73
2022/03/07 00:32:00;;;;;;;6.18;2.65;;;-0.30;99.90;;;;;;5052978;28;20017;-73
2022/03/07 00:34:25;;;;;;;7.75;2.88;;;-0.30;99.90;;;;;;5039857;28;20022;-73
2022/03/07 00:36:51;;;;;;;7.05;2.55;;;-0.30;99.90;;;;;;5033139;28;20041;-73
2022/03/07 00:39:16;;;;;;;11.77;3.90;;;-0.30;99.90;;;;;;5033299;28;20029;-73
2022/03/07 00:41:42;;;;;;;5.32;2.70;;;-0.30;99.90;;;;;;5033177;28;20029;-73
2022/03/07 00:44:07;;;;;;;7.22;2.60;;;-0.30;99.90;;;;;;5033103;28;20076;-73
2022/03/07 00:46:33;;;;;;;5.88;2.53;;;-0.30;99.90;;;;;;5031861;28;20029;-73
2022/03/07 00:48:58;;;;;;;6.82;2.40;;;-0.30;99.90;;;;;;5039569;28;20013;-73
2022/03/07 00:51:24;;;;;;;7.60;2.40;;;-0.40;99.90;;;;;;5055876;28;20474;-73
2022/03/07 00:53:50;;;;;;;9.73;2.67;;;-0.50;99.90;;;;;;5055887;28;20066;-73
2022/03/07 00:56:16;;;;;;;6.82;3.13;;;-0.50;99.90;;;;;;5056978;28;20091;-73
2022/03/07 00:58:41;;;;;;;5.68;2.47;;;-0.50;99.90;;;;;;5057439;28;20025;-73
2022/03/07 01:01:07;;;;;;;7.07;2.72;;;-0.50;99.90;;;;;;5057039;28;20032;-73
2022/03/07 01:03:32;;;;;;;7.93;2.85;;;-0.60;99.90;;;;;;5046783;28;20085;-73
2022/03/07 01:05:58;;;;;;;7.50;2.50;;;-0.60;99.90;;;;;;5037141;28;20490;-73
2022/03/07 01:08:23;;;;;;;6.85;2.63;;;-0.60;99.90;;;;;;5035522;28;20026;-73
2022/03/07 01:10:49;;;;;;;6.03;2.47;;;-0.60;99.90;;;;;;5036835;28;20022;-73
2022/03/07 01:13:15;;;;;;;10.07;3.05;;;-0.60;99.90;;;;;;5035717;28;20018;-73
2022/03/07 01:15:41;;;;;;;8.10;3.03;;;-0.70;99.90;;;;;;5037126;28;20017;-73
2022/03/07 01:18:06;;;;;;;8.27;3.08;;;-0.70;99.90;;;;;;5043556;28;20033;-73
2022/03/07 01:20:35;;;;;;;4.57;2.38;;;-0.70;99.90;;;;;;5055302;28;20091;-73
2022/03/07 01:23:00;;;;;;;6.35;2.83;;;-0.70;99.90;;;;;;5056833;28;20029;-73
2022/03/07 01:25:26;;;;;;;8.52;2.67;;;-0.70;99.90;;;;;;5055335;28;20028;-73
2022/03/07 01:27:52;;;;;;;4.25;2.03;;;-0.60;99.90;;;;;;5055238;28;20021;-73
2022/03/07 01:30:17;;;;;;;6.88;2.67;;;-0.70;99.90;;;;;;5056455;28;20029;-73
2022/03/07 01:32:43;;;;;;;8.75;3.40;;;-0.70;99.90;;;;;;5043720;28;20025;-72
2022/03/07 01:35:09;;;;;;;9.50;2.78;;;-0.70;99.90;;;;;;5036469;28;20092;-73
2022/03/07 01:37:34;;;;;;;5.63;2.20;;;-0.70;99.90;;;;;;5036556;28;20037;-73
2022/03/07 01:40:00;;;;;;;7.65;2.05;;;-0.70;99.90;;;;;;5036233;28;20033;-73
2022/03/07 01:42:25;;;;;;;5.97;1.98;;;-0.60;99.90;;;;;;5036376;28;20021;-73
2022/03/07 01:44:51;;;;;;;6.00;2.63;;;-0.60;99.90;;;;;;5036262;28;20101;-73
2022/03/07 01:47:17;;;;;;;9.45;2.35;;;-0.60;99.90;;;;;;5050938;28;20025;-73
2022/03/07 01:49:42;;;;;;;6.50;2.50;;;-0.60;99.90;;;;;;5056136;28;20539;-74
2022/03/07 01:52:09;;;;;;;6.80;2.85;;;-0.50;99.90;;;;;;5054951;28;20032;-73
2022/03/07 01:54:34;;;;;;;5.25;2.22;;;-0.50;99.90;;;;;;5055993;28;20098;-74
2022/03/07 01:57:00;;;;;;;7.57;1.92;;;-0.50;99.90;;;;;;5054858;28;20056;-74
2022/03/07 01:59:28;;;;;;;6.13;1.83;;;-0.40;99.90;;;;;;5052886;28;20433;-74
2022/03/07 02:01:54;;;;;;;4.30;1.90;;;-0.40;99.90;;;;;;5036021;28;20041;-74
2022/03/07 02:04:20;;;;;;;4.90;2.22;;;-0.40;99.90;;;;;;5044994;28;20302;-74
2022/03/07 02:06:47;;;;;;;8.00;2.70;;;-0.40;99.90;;;;;;5053799;28;20075;-74
2022/03/07 02:09:12;;;;;;;6.10;1.92;;;-0.40;99.90;;;;;;5054626;28;20017;-74
2022/03/07 02:11:39;;;;;;;6.63;2.33;;;-0.40;99.90;;;;;;5055845;28;20103;-74
2022/03/07 02:14:11;;;;;;;6.13;2.03;;;-0.40;99.90;;;;;;5054561;28;20021;-74
2022/03/07 02:16:37;;;;;;;5.50;1.80;;;-0.40;99.90;;;;;;5054244;28;20112;-73
2022/03/07 02:19:03;;;;;;;6.43;2.60;;;-0.40;99.90;;;;;;5037014;28;20454;-74
2022/03/07 02:21:32;;;;;;;5.45;2.22;;;-0.40;99.90;;;;;;5036734;28;20113;-74
2022/03/07 02:23:57;;;;;;;7.68;2.50;;;-0.40;99.90;;;;;;5034343;28;20076;-73
2022/03/07 02:26:23;;;;;;;7.28;2.22;;;-0.50;99.90;;;;;;5035511;28;20021;-73
2022/03/07 02:28:49;;;;;;;5.82;2.45;;;-0.50;99.90;;;;;;5035821;28;20128;-73
2022/03/07 02:31:19;;;;;;;5.75;2.00;;;-0.50;99.90;;;;;;5035390;28;20030;-73
2022/03/07 02:33:47;;;;;;;7.90;2.25;;;-0.50;99.90;;;;;;5039741;28;20074;-73
2022/03/07 02:36:13;;;;;;;5.25;2.35;;;-0.60;99.90;;;;;;5055081;28;20029;-73
2022/03/07 02:38:38;;;;;;;4.75;2.28;;;-0.60;99.90;;;;;;5053937;28;20107;-73
2022/03/07 02:41:04;;;;;;;8.25;2.55;;;-0.60;99.90;;;;;;5055714;28;20017;-73
2022/03/07 02:43:29;;;;;;;6.95;2.20;;;-0.70;99.90;;;;;;5055024;28;20079;-73
2022/03/07 02:45:58;;;;;;;4.97;1.92;;;-0.80;99.90;;;;;;5055190;28;20023;-73
2022/03/07 02:48:24;;;;;;;8.43;2.13;;;-0.90;99.90;;;;;;5047472;28;20037;-73
2022/03/07 02:50:49;;;;;;;5.13;2.22;;;-0.90;99.90;;;;;;5035185;28;20433;-73
2022/03/07 02:53:15;;;;;;;8.98;2.35;;;-1.00;99.90;;;;;;5033724;28;20024;-73
2022/03/07 02:55:40;;;;;;;5.78;2.45;;;-1.00;99.90;;;;;;5035004;28;20021;-73
2022/03/07 02:58:06;;;;;;;10.38;2.10;;;-1.10;99.90;;;;;;5033912;28;20033;-73
2022/03/07 03:00:32;;;;;;;3.50;1.55;;;-1.10;99.90;;;;;;5033685;28;20117;-73
2022/03/07 03:02:58;;;;;;;4.68;1.95;;;-1.10;99.90;;;;;;5047955;28;20029;-73
2022/03/07 03:05:24;;;;;;;6.55;2.60;;;-1.10;99.90;;;;;;5055283;28;20146;-73
2022/03/07 03:07:51;;;;;;;5.25;2.22;;;-1.10;99.90;;;;;;5054768;28;20021;-73
2022/03/07 03:10:17;;;;;;;6.72;2.45;;;-1.10;99.90;;;;;;5053156;28;20017;-73
2022/03/07 03:12:43;;;;;;;6.25;2.35;;;-1.10;99.90;;;;;;5055008;28;20075;-73
2022/03/07 03:15:09;;;;;;;6.93;2.28;;;-1.10;99.90;;;;;;5054846;28;20017;-73
2022/03/07 03:17:38;;;;;;;4.25;2.22;;;-1.00;99.90;;;;;;5054454;28;20546;-73
2022/03/07 03:20:04;;;;;;;7.55;2.50;;;-1.00;99.90;;;;;;5054474;28;20581;-73
2022/03/07 03:22:31;;;;;;;10.85;3.00;;;-1.00;99.90;;;;;;5053199;28;20052;-73
2022/03/07 03:24:56;;;;;;;4.63;2.20;;;-1.00;99.90;;;;;;5054591;28;20025;-73
2022/03/07 03:27:22;;;;;;;4.93;2.03;;;-1.00;99.90;;;;;;5054437;28;20036;-73
2022/03/07 03:29:47;;;;;;;6.07;2.25;;;-1.00;99.90;;;;;;5054141;28;20407;-73
2022/03/07 03:32:13;;;;;;;6.00;2.10;;;-1.00;99.90;;;;;;5034741;28;20145;-73
2022/03/07 03:34:38;;;;;;;8.07;2.20;;;-1.00;99.90;;;;;;5034384;28;20028;-73
2022/03/07 03:37:04;;;;;;;5.15;2.10;;;-1.00;99.90;;;;;;5034086;28;20033;-73
2022/03/07 03:39:30;;;;;;;6.28;2.72;;;-0.90;99.90;;;;;;5034712;28;20028;-73
2022/03/07 03:41:55;;;;;;;7.13;3.08;;;-0.90;99.90;;;;;;5034501;28;20144;-73
2022/03/07 03:44:21;;;;;;;9.65;3.20;;;-0.80;99.90;;;;;;5033468;28;20021;-73
2022/03/07 03:46:49;;;;;;;5.05;2.50;;;-0.80;99.90;;;;;;5065869;28;20470;-73
2022/03/07 03:49:14;;;;;;;4.90;2.50;;;-0.70;99.90;;;;;;5066625;28;20056;-73
2022/03/07 03:51:40;;;;;;;7.47;2.45;;;-0.70;99.90;;;;;;5034984;28;20025;-73
2022/03/07 03:54:05;;;;;;;6.03;1.50;;;-0.70;99.90;;;;;;5034714;28;20021;-73
2022/03/07 03:56:31;;;;;;;6.72;2.50;;;-0.70;99.90;;;;;;5034194;28;20028;-73
2022/03/07 03:58:56;;;;;;;5.60;2.80;;;-0.70;99.90;;;;;;5039587;28;20493;-73
2022/03/07 04:01:22;;;;;;;6.78;2.40;;;-0.70;99.90;;;;;;5043347;28;20022;-73
2022/03/07 04:03:48;;;;;;;8.18;3.55;;;-0.70;99.90;;;;;;5038677;28;20355;-73
2022/03/07 04:06:13;;;;;;;8.77;2.53;;;-0.70;99.90;;;;;;5054636;28;20009;-73
2022/03/07 04:09:05;;;;;;;8.60;2.40;;;-0.70;99.90;;;;;;5053130;28;20020;-73
2022/03/07 04:11:30;;;;;;;7.72;2.65;;;-0.70;99.90;;;;;;5054553;28;20021;-73
2022/03/07 04:13:56;;;;;;;8.90;2.40;;;-0.80;99.90;;;;;;5054154;28;20031;-73
2022/03/07 04:16:22;;;;;;;7.72;2.30;;;-0.70;99.90;;;;;;5053973;28;20025;-73
2022/03/07 04:18:47;;;;;;;8.55;2.08;;;-0.80;99.90;;;;;;5039168;28;20072;-73
2022/03/07 04:21:14;;;;;;;6.07;2.58;;;-0.80;99.90;;;;;;5034310;28;20475;-73
2022/03/07 04:23:39;;;;;;;7.50;2.30;;;-0.80;99.90;;;;;;5033434;28;20071;-74
2022/03/07 04:26:05;;;;;;;9.75;2.65;;;-0.80;99.90;;;;;;5034232;28;20030;-73
2022/03/07 04:28:30;;;;;;;5.40;2.03;;;-0.80;99.90;;;;;;5034052;28;20018;-74
2022/03/07 04:30:56;;;;;;;4.90;2.00;;;-0.80;99.90;;;;;;5032483;28;20116;-74
2022/03/07 04:33:21;;;;;;;6.82;2.85;;;-0.90;99.90;;;;;;5045750;28;20036;-74
2022/03/07 04:35:47;;;;;;;5.95;2.42;;;-1.00;99.90;;;;;;5053716;28;20079;-74
2022/03/07 04:38:12;;;;;;;7.60;2.90;;;-1.00;99.90;;;;;;5051919;28;20029;-74
2022/03/07 04:40:38;;;;;;;8.60;2.40;;;-1.10;99.90;;;;;;5053405;28;20386;-74
2022/03/07 04:43:04;;;;;;;6.47;2.70;;;-1.10;99.90;;;;;;5052045;28;20078;-73
2022/03/07 04:45:29;;;;;;;7.30;2.38;;;-1.20;99.90;;;;;;5053338;28;20032;-73
2022/03/07 04:47:55;;;;;;;8.70;2.50;;;-1.30;99.90;;;;;;5033759;28;20021;-73
2022/03/07 04:50:20;;;;;;;6.80;2.25;;;-1.40;99.90;;;;;;5031902;28;20025;-73
2022/03/07 04:52:46;;;;;;;6.07;2.40;;;-1.40;99.90;;;;;;5033771;28;20022;-73
2022/03/07 04:55:13;;;;;;;4.40;2.17;;;-1.40;99.90;;;;;;5033919;28;20360;-73
2022/03/07 04:57:39;;;;;;;7.50;2.97;;;-1.40;99.90;;;;;;5033914;28;20100;-73
2022/03/07 05:00:07;;;;;;;7.15;2.72;;;-1.50;99.90;;;;;;5033431;28;20069;-73
2022/03/07 05:02:33;;;;;;;7.82;2.85;;;-1.50;99.90;;;;;;5034460;28;20025;-73
2022/03/07 05:04:58;;;;;;;7.13;2.72;;;-1.50;99.90;;;;;;5033403;28;20040;-73
2022/03/07 05:07:24;;;;;;;11.07;2.80;;;-1.50;99.90;;;;;;5033053;28;20033;-73
2022/03/07 05:09:50;;;;;;;7.03;2.97;;;-1.50;99.90;;;;;;5065527;28;20013;-73
2022/03/07 05:12:15;;;;;;;5.75;2.55;;;-1.50;99.90;;;;;;5033478;28;20468;-73
2022/03/07 05:14:41;;;;;;;8.43;2.67;;;-1.60;99.90;;;;;;5033923;28;20032;-73
2022/03/07 05:17:07;;;;;;;6.53;2.78;;;-1.60;99.90;;;;;;5039818;28;20021;-73
2022/03/07 05:19:32;;;;;;;4.80;2.38;;;-1.60;99.90;;;;;;5053273;28;20032;-73
2022/03/07 05:21:58;;;;;;;5.63;2.67;;;-1.60;99.90;;;;;;5052163;28;20432;-74
2022/03/07 05:24:23;;;;;;;10.60;2.90;;;-1.60;99.90;;;;;;5053197;28;20556;-73
2022/03/07 05:26:49;;;;;;;10.52;3.35;;;-1.60;99.90;;;;;;5053230;28;20033;-73
2022/03/07 05:29:15;;;;;;;7.40;2.90;;;-1.60;99.90;;;;;;5051594;28;20029;-73
2022/03/07 05:31:40;;;;;;;5.80;2.35;;;-1.60;99.90;;;;;;5038770;28;20485;-73
2022/03/07 05:34:06;;;;;;;6.57;2.67;;;-1.60;99.90;;;;;;5034900;28;20030;-73
2022/03/07 05:36:31;;;;;;;9.88;2.90;;;-1.60;99.90;;;;;;5036580;28;20033;-74
2022/03/07 05:38:57;;;;;;;6.28;3.00;;;-1.60;99.90;;;;;;5036138;28;20071;-74
2022/03/07 05:41:22;;;;;;;7.90;2.92;;;-1.70;99.90;;;;;;5035583;28;20029;-73
2022/03/07 05:43:48;;;;;;;9.93;2.88;;;-1.70;99.90;;;;;;5035859;28;20017;-74
2022/03/07 05:46:13;;;;;;;9.27;2.38;;;-1.70;99.90;;;;;;5038367;28;20013;-74
2022/03/07 05:48:39;;;;;;;8.90;2.80;;;-1.70;99.90;;;;;;5056818;28;20467;-73
2022/03/07 05:51:05;;;;;;;10.15;3.30;;;-1.70;99.90;;;;;;5056273;28;20048;-74
2022/03/07 05:53:30;;;;;;;9.00;3.50;;;-1.70;99.90;;;;;;5056736;28;20025;-74
2022/03/07 05:55:56;;;;;;;8.63;3.95;;;-1.60;99.90;;;;;;5056828;28;20390;-74
2022/03/07 05:58:21;;;;;;;10.30;3.55;;;-1.60;99.90;;;;;;5056845;28;20018;-73
2022/03/07 06:00:47;;;;;;;8.75;2.92;;;-1.60;99.90;;;;;;5054946;28;20556;-74
2022/03/07 06:03:12;;;;;;;9.77;3.42;;;-1.60;99.90;;;;;;5036712;28;20125;-75
2022/03/07 06:05:41;;;;;;;11.35;3.63;;;-1.60;99.90;;;;;;5055586;28;20086;-74
2022/03/07 06:08:07;;;;;;;10.48;4.22;;;-1.60;99.90;;;;;;5055988;28;20032;-74
2022/03/07 06:10:33;;;;;;;7.38;2.67;;;-1.60;99.90;;;;;;5057099;28;20039;-73
2022/03/07 06:12:59;;;;;;;7.68;3.55;;;-1.60;99.90;;;;;;5055059;28;20108;-73
2022/03/07 06:15:25;;;;;;;9.73;3.40;;;-1.60;99.90;;;;;;5054861;28;20391;-73
2022/03/07 06:17:52;;;;;;;12.90;3.92;;;-1.60;99.90;;;;;;5049143;28;20027;-72
2022/03/07 06:20:19;;;;;;;10.85;4.22;;;-1.60;99.90;;;;;;5034755;28;20618;-73
2022/03/07 06:22:45;;;;;;;7.97;3.67;;;-1.60;99.90;;;;;;5035804;28;20037;-72
2022/03/07 06:25:11;;;;;;;13.52;4.00;;;-1.60;99.90;;;;;;5036447;28;20156;-73
2022/03/07 06:27:36;;;;;;;11.15;4.13;;;-1.60;99.90;;;;;;5034734;28;20112;-72
2022/03/07 06:30:03;;;;;;;9.75;3.60;;;-1.60;99.90;;;;;;5036101;28;20410;-72
2022/03/07 06:32:28;;;;;;;10.98;4.22;;;-1.60;99.90;;;;;;5041438;28;20029;-72
2022/03/07 06:34:54;;;;;;;9.00;3.20;;;-1.50;99.90;;;;;;5055880;28;20018;-73
2022/03/07 06:37:19;;;;;;;12.23;3.72;;;-1.50;99.90;;;;;;5055600;28;20033;-73
2022/03/07 06:39:45;;;;;;;11.88;4.07;;;-1.50;99.90;;;;;;5055596;28;20025;-73
2022/03/07 06:42:11;;;;;;;8.80;3.72;;;-1.50;99.90;;;;;;5055325;28;20021;-73
2022/03/07 06:44:40;;;;;;;14.50;4.20;;;-1.40;99.90;;;;;;5054746;28;20033;-73
2022/03/07 06:47:07;;;;;;;14.45;5.35;;;-1.40;99.90;;;;;;5053411;28;20024;-75
2022/03/07 06:49:32;;;;;;;17.23;5.85;;;-1.30;99.90;;;;;;5053855;28;20047;-74
2022/03/07 06:51:58;;;;;;;13.82;4.82;;;-1.20;99.90;;;;;;5054193;28;20064;-74
2022/03/07 06:54:23;;;;;;;10.32;4.20;;;-1.20;99.90;;;;;;5053964;28;20016;-73
2022/03/07 06:56:49;;;;;;;9.82;4.20;;;-1.10;99.90;;;;;;5052667;28;20025;-75
2022/03/07 06:59:15;;;;;;;11.52;5.30;;;-1.10;99.90;;;;;;5035411;28;20028;-74
2022/03/07 07:01:40;;;;;;;11.02;4.32;;;-1.00;99.90;;;;;;5033717;28;20049;-76
2022/03/07 07:04:06;;;;;;;11.43;4.20;;;-0.90;99.90;;;;;;5033740;28;20021;-76
2022/03/07 07:06:31;;;;;;;11.40;4.20;;;-0.90;99.90;;;;;;5033568;28;20032;-75
2022/03/07 07:08:58;;;;;;;9.27;3.60;;;-0.80;99.90;;;;;;5034995;28;20028;-74
2022/03/07 07:11:23;;;;;;;8.57;4.05;;;-0.70;99.90;;;;;;5034977;28;20014;-74
2022/03/07 07:13:49;;;;;;;8.43;3.95;;;-0.60;99.90;;;;;;5033341;28;20026;-73
2022/03/07 07:16:14;;;;;;;11.55;3.75;;;-0.60;99.90;;;;;;5034859;28;20065;-73
2022/03/07 07:18:40;;;;;;;9.30;3.33;;;-0.50;99.90;;;;;;5033369;28;20395;-73
2022/03/07 07:21:07;;;;;;;9.45;3.63;;;-0.40;99.90;;;;;;5034468;28;20024;-73
2022/03/07 07:23:33;;;;;;;7.22;3.72;;;-0.30;99.90;;;;;;5034758;28;20022;-73
2022/03/07 07:25:58;;;;;;;15.73;3.78;;;-0.20;99.90;;;;;;5034632;28;20505;-73
2022/03/07 07:28:24;;;;;;;11.95;3.95;;;-0.10;99.90;;;;;;5032980;28;20025;-73
2022/03/07 07:30:50;;;;;;;8.55;3.67;;;-0.10;99.90;;;;;;5034271;28;20037;-73
2022/03/07 07:33:16;;;;;;;6.32;3.13;;;0.10;99.90;;;;;;5033085;28;20025;-73
2022/03/07 07:35:42;;;;;;;12.00;3.90;;;0.10;99.90;;;;;;5033543;28;20017;-73
2022/03/07 07:38:08;;;;;;;7.88;3.25;;;0.30;99.90;;;;;;5033883;28;20441;-73
2022/03/07 07:40:34;;;;;;;7.35;3.40;;;0.30;99.90;;;;;;5034932;28;20029;-73
2022/03/07 07:42:59;;;;;;;8.02;3.35;;;0.50;99.90;;;;;;5034558;28;20025;-73
2022/03/07 07:45:25;;;;;;;9.75;3.70;;;0.60;99.90;;;;;;5034859;28;20021;-73
2022/03/07 07:47:52;;;;;;;8.73;3.67;;;0.60;99.90;;;;;;5066494;28;20032;-73
2022/03/07 07:50:19;;;;;;;6.88;3.42;;;0.80;99.90;;;;;;5034380;28;20076;-74
2022/03/07 07:52:44;;;;;;;10.13;3.67;;;0.90;99.90;;;;;;5033261;28;20457;-73
2022/03/07 07:55:10;;;;;;;11.40;3.42;;;1.00;99.90;;;;;;5034265;28;20053;-73
2022/03/07 07:57:35;;;;;;;8.23;3.22;;;1.10;99.90;;;;;;5032486;28;20060;-73
2022/03/07 08:00:03;;;;;;;12.75;4.88;;;1.20;99.90;;;;;;5034814;28;20030;-73
2022/03/07 08:02:28;;;;;;;7.10;3.35;;;1.20;99.90;;;;;;5034180;28;20403;-73
2022/03/07 08:04:54;;;;;;;9.40;3.70;;;1.30;99.90;;;;;;5034167;28;20029;-73
2022/03/07 08:07:20;;;;;;;9.55;3.78;;;1.50;99.90;;;;;;5033895;28;20036;-74
2022/03/07 08:09:45;;;;;;;10.85;3.78;;;1.60;99.90;;;;;;5033925;28;20022;-73
2022/03/07 08:12:12;;;;;;;6.65;3.63;;;1.70;99.90;;;;;;5034089;28;20087;-73
2022/03/07 08:14:38;;;;;;;9.57;3.95;;;1.80;99.90;;;;;;5066149;28;20033;-73
2022/03/07 08:17:05;;;;;;;9.38;3.78;;;1.90;99.90;;;;;;5034192;28;20025;-73
2022/03/07 08:19:31;;;;;;;7.05;4.18;;;2.00;99.90;;;;;;5032790;28;20025;-73
2022/03/07 08:21:56;;;;;;;5.15;2.83;;;2.10;99.90;;;;;;5033876;28;20029;-73
2022/03/07 08:24:23;;;;;;;8.20;3.47;;;2.10;99.90;;;;;;5034369;28;20026;-73
2022/03/07 08:26:49;;;;;;;8.77;3.80;;;2.20;99.90;;;;;;5034557;28;20032;-73
2022/03/07 08:29:14;;;;;;;8.60;3.92;;;2.40;99.90;;;;;;5033413;28;20018;-74
2022/03/07 08:31:39;;;;;;;6.85;3.20;;;2.50;99.90;;;;;;5066095;28;20040;-73
2022/03/07 08:34:05;;;;;;;7.47;3.33;;;2.60;99.90;;;;;;5032547;28;20035;-73
2022/03/07 08:36:32;;;;;;;5.25;3.20;;;2.70;99.90;;;;;;5033948;28;20029;-74
2022/03/07 08:38:58;;;;;;;4.85;2.78;;;2.90;99.90;;;;;;5032542;28;20545;-73
2022/03/07 08:41:24;;;;;;;5.82;2.63;;;3.00;99.90;;;;;;5034086;28;20018;-73
2022/03/07 08:43:51;;;;;;;12.35;3.33;;;3.10;99.90;;;;;;5033711;28;20404;-74
2022/03/07 08:46:17;;;;;;;6.05;3.05;;;3.20;99.90;;;;;;5033771;28;20025;-73
2022/03/07 08:48:42;;;;;;;5.25;2.53;;;3.30;99.90;;;;;;5033596;28;20171;-73
2022/03/07 08:51:08;;;;;;;13.52;3.05;;;3.40;99.90;;;;;;5033969;28;20041;-73
2022/03/07 08:53:34;;;;;;;6.55;2.45;;;3.50;99.90;;;;;;5033734;28;20022;-73
2022/03/07 08:55:59;;;;;;;5.18;3.03;;;3.60;99.90;;;;;;5065641;28;20471;-73
2022/03/07 08:58:25;;;;;;;5.45;2.58;;;3.80;99.90;;;;;;5034036;28;20104;-73
2022/03/07 09:00:50;;;;;;;6.13;2.58;;;3.90;99.90;;;;;;5032192;28;20065;-73
2022/03/07 09:03:16;;;;;;;6.78;2.47;;;4.00;99.90;;;;;;5033467;28;20029;-73
2022/03/07 09:05:42;;;;;;;10.13;3.10;;;4.10;99.90;;;;;;5034053;28;20033;-73
2022/03/07 09:08:07;;;;;;;5.10;2.40;;;4.20;99.90;;;;;;5033980;28;20113;-73
2022/03/07 09:10:33;;;;;;;3.90;2.08;;;4.30;99.90;;;;;;5036149;28;20124;-73
2022/03/07 09:12:58;;;;;;;4.68;2.60;;;4.40;99.90;;;;;;5037593;28;20025;-73
2022/03/07 09:15:24;;;;;;;9.52;3.20;;;4.50;99.90;;;;;;5037172;28;20033;-73
2022/03/07 09:17:49;;;;;;;7.03;2.90;;;4.60;99.90;;;;;;5037692;28;20459;-73
2022/03/07 09:20:17;;;;;;;4.57;2.33;;;4.70;99.90;;;;;;5037096;28;20027;-73
2022/03/07 09:22:44;;;;;;;6.75;3.25;;;4.80;99.90;;;;;;5037184;28;20061;-73
2022/03/07 09:25:11;;;;;;;4.88;2.53;;;4.90;99.90;;;;;;5035591;28;20123;-73
2022/03/07 09:27:36;;;;;;;5.05;2.25;;;5.00;99.90;;;;;;5037012;28;20387;-73
2022/03/07 09:30:04;;;;;;;7.45;3.30;;;5.10;99.90;;;;;;5037298;28;20021;-73
2022/03/07 09:32:30;;;;;;;4.80;2.53;;;5.20;99.90;;;;;;5035585;28;20022;-73
2022/03/07 09:34:55;;;;;;;4.80;2.72;;;5.30;98.00;;;;;;5035560;28;20018;-73
2022/03/07 09:37:21;;;;;;;4.65;2.60;;;5.40;94.20;;;;;;5036505;28;20506;-73
2022/03/07 09:39:49;;;;;;;5.97;2.25;;;5.50;96.60;;;;;;5036939;28;20017;-73
2022/03/07 09:42:15;;;;;;;4.22;1.98;;;5.60;94.80;;;;;;5036603;28;20025;-73
2022/03/07 09:44:41;;;;;;;4.13;1.77;;;5.70;93.00;;;;;;5035332;28;20105;-73
2022/03/07 09:47:07;;;;;;;6.97;1.85;;;5.70;92.60;;;;;;5036385;28;20037;-73
2022/03/07 09:49:32;;;;;;;5.03;1.90;;;5.90;90.20;;;;;;5036793;28;20417;-73
2022/03/07 09:51:59;;;;;;;4.13;1.85;;;5.90;88.20;;;;;;5036478;28;20024;-73
2022/03/07 09:54:25;;;;;;;3.75;2.15;;;6.00;89.40;;;;;;5035084;28;20022;-73
2022/03/07 09:56:52;;;;;;;3.97;1.90;;;6.00;89.80;;;;;;5036739;28;20337;-73
2022/03/07 09:59:19;;;;;;;5.20;1.60;;;6.10;84.80;;;;;;5036104;28;20041;-73
2022/03/07 10:01:45;;;;;;;4.57;2.25;;;6.10;84.40;;;;;;5036811;28;20416;-74
2022/03/07 10:04:13;;;;;;;2.85;1.48;;;6.20;85.60;;;;;;5036362;28;20104;-74
2022/03/07 10:06:48;;;;;;;3.55;1.60;;;6.20;85.30;;;;;;5035999;28;20547;-74
2022/03/07 10:09:19;;;;;;;5.10;2.10;;;6.30;86.00;;;;;;5036106;28;20018;-74
2022/03/07 10:11:53;;;;;;;2.97;1.70;;;6.50;82.30;;;;;;5036043;28;20022;-74
2022/03/07 10:14:34;;;;;;;5.15;1.92;;;6.50;82.70;;;;;;5035838;28;20052;-74
2022/03/07 10:17:02;;;;;;;5.45;2.40;;;6.60;82.40;;;;;;5035775;28;20028;-74
2022/03/07 10:19:29;;;;;;;6.00;1.92;;;6.70;81.50;;;;;;5035200;28;20120;-74
2022/03/07 10:21:54;;;;;;;4.00;1.65;;;6.70;78.40;;;;;;5035600;28;20030;-74
2022/03/07 10:24:32;;;;;;;4.50;2.10;;;6.70;77.10;;;;;;5034604;28;20124;-74
2022/03/07 10:26:58;;;;;;;3.17;1.88;;;6.70;81.90;;;;;;5034256;28;20365;-74
2022/03/07 10:29:24;;;;;;;5.40;1.70;;;6.80;78.40;;;;;;5035666;28;20084;-74
2022/03/07 10:31:49;;;;;;;7.78;2.88;;;6.90;79.50;;;;;;5035789;28;20035;-74
2022/03/07 10:34:15;;;;;;;4.97;2.30;;;7.00;75.40;;;;;;5034247;28;20471;-74
2022/03/07 10:36:43;;;;;;;6.85;2.17;;;7.00;78.20;;;;;;5035301;28;20479;-74
2022/03/07 10:39:15;;;;;;;5.45;3.30;;;7.00;78.60;;;;;;5035443;28;20025;-74
2022/03/07 10:41:43;;;;;;;5.85;2.45;;;7.00;76.90;;;;;;5035676;28;20026;-74
2022/03/07 10:44:24;;;;;;;4.28;2.72;;;7.00;80.70;;;;;;5035522;28;20536;-74
2022/03/07 10:46:50;;;;;;;7.40;2.55;;;7.20;80.30;;;;;;5034003;28;20021;-74
2022/03/07 10:49:17;;;;;;;4.75;2.60;;;7.20;78.50;;;;;;5035435;28;20049;-74
2022/03/07 10:51:53;;;;;;;6.28;3.38;;;7.20;76.70;;;;;;5035243;28;20076;-74
2022/03/07 10:54:21;;;;;;;8.18;2.97;;;7.30;77.50;;;;;;5033845;28;20117;-74
2022/03/07 10:56:52;;;;;;;7.07;2.90;;;7.40;80.30;;;;;;5035014;28;20024;-74
2022/03/07 10:59:31;;;;;;;6.32;2.20;;;7.40;78.10;;;;;;5035049;28;20112;-74
2022/03/07 11:02:04;;;;;;;6.72;2.65;;;7.60;78.80;;;;;;5034014;28;20475;-73
2022/03/07 11:04:30;;;;;;;5.72;3.17;;;7.70;76.40;;;;;;5035261;28;20498;-74
2022/03/07 11:06:56;;;;;;;5.70;2.90;;;7.80;75.40;;;;;;5034927;28;20392;-74
2022/03/07 11:09:22;;;;;;;4.85;2.25;;;8.00;73.90;;;;;;5033850;28;20569;-74
2022/03/07 11:11:49;;;;;;;4.50;1.90;;;8.00;72.20;;;;;;5035058;28;20017;-74
2022/03/07 11:14:16;;;;;;;3.38;1.55;;;8.10;70.90;;;;;;5035199;28;20025;-74
2022/03/07 11:16:43;;;;;;;5.93;2.35;;;8.10;71.60;;;;;;5033748;28;20025;-74
2022/03/07 11:19:17;;;;;;;5.47;2.63;;;8.30;71.90;;;;;;5034982;28;20030;-74
2022/03/07 11:21:50;;;;;;;7.80;2.35;;;8.30;69.80;;;;;;5033810;28;20017;-74
2022/03/07 11:24:18;;;;;;;3.63;2.08;;;8.30;67.40;;;;;;5033656;28;20022;-77
2022/03/07 11:26:45;;;;;;;4.25;2.33;;;8.40;69.20;;;;;;5034934;28;20499;-77
2022/03/07 11:29:10;;;;;;;6.28;2.85;;;8.40;69.30;;;;;;5034932;28;20033;-77
2022/03/07 11:31:38;;;;;;;3.97;2.22;;;8.50;69.10;;;;;;5034463;28;20022;-77
2022/03/07 11:34:07;;;;;;;4.95;2.40;;;8.60;68.90;;;;;;5031340;28;20084;-77
2022/03/07 11:36:37;;;;;;;3.85;1.98;;;8.70;67.70;;;;;;5034519;28;20083;-77
2022/03/07 11:39:04;;;;;;;6.53;1.80;;;8.80;66.80;;;;;;5033526;28;20028;-77
2022/03/07 11:41:36;;;;;;;4.63;1.90;;;8.90;67.30;;;;;;5034102;28;20041;-74
2022/03/07 11:44:10;;;;;;;11.65;1.92;;;9.00;66.50;;;;;;5034607;28;20022;-74
2022/03/07 11:46:39;;;;;;;4.20;1.58;;;9.10;65.60;;;;;;5035100;28;20037;-74
2022/03/07 11:49:07;;;;;;;3.47;1.90;;;9.30;64.20;;;;;;5033310;28;20095;-74
2022/03/07 11:51:38;;;;;;;3.33;1.50;;;9.40;62.80;;;;;;5034921;28;20471;-74
2022/03/07 11:54:05;;;;;;;2.97;1.35;;;9.40;64.10;;;;;;5033239;28;20064;-74
2022/03/07 11:56:34;;;;;;;2.88;1.83;;;9.50;62.70;;;;;;5034523;28;20029;-74
2022/03/07 11:59:02;;;;;;;2.78;1.17;;;9.60;62.20;;;;;;5034606;28;20036;-74
2022/03/07 12:01:31;;;;;;;4.03;1.93;;;9.60;60.50;;;;;;5034670;28;20077;-74
2022/03/07 12:04:15;;;;;;;3.42;1.23;;;9.60;60.60;;;;;;5035222;28;20272;-74
2022/03/07 12:06:47;;;;;;;2.80;1.35;;;9.70;61.90;;;;;;5033278;28;20052;-74
2022/03/07 12:09:28;;;;;;;2.83;1.35;;;9.90;61.70;;;;;;5035104;28;20021;-75
2022/03/07 12:12:07;;;;;;;1.65;1.13;;;10.10;60.90;;;;;;5033565;28;20128;-74
2022/03/07 12:14:41;;;;;;;4.25;1.25;;;10.30;60.10;;;;;;5034282;28;20022;-74
2022/03/07 12:17:17;;;;;;;2.75;0.95;;;10.50;58.40;;;;;;5034517;28;20487;-74
2022/03/07 12:19:51;;;;;;;1.55;0.80;;;10.50;58.80;;;;;;5034138;28;20451;-74
2022/03/07 12:22:17;;;;;;;2.53;0.93;;;10.60;57.80;;;;;;5032664;28;20033;-74
2022/03/07 12:24:43;;;;;;;5.15;1.25;;;10.70;56.70;;;;;;5032241;28;20014;-74
2022/03/07 12:27:09;;;;;;;4.07;1.20;;;10.80;56.20;;;;;;5032176;28;20017;-74
2022/03/07 12:29:39;;;;;;;5.32;1.45;;;10.90;56.00;;;;;;5033623;28;20026;-74
2022/03/07 12:32:06;;;;;;;3.47;1.50;;;10.90;55.60;;;;;;5032485;28;20067;-74
2022/03/07 12:34:33;;;;;;;3.00;0.95;;;10.90;54.60;;;;;;5033854;28;20018;-74
2022/03/07 12:37:15;;;;;;;2.65;1.23;;;10.80;55.30;;;;;;5033638;28;20029;-74
2022/03/07 12:39:49;;;;;;;4.25;1.05;;;10.90;55.30;;;;;;5033315;28;20021;-74
2022/03/07 12:42:24;;;;;;;2.40;1.30;;;11.00;55.80;;;;;;5032236;28;20030;-74
2022/03/07 12:44:51;;;;;;;3.03;1.75;;;11.10;55.30;;;;;;5033807;28;20025;-74
2022/03/07 12:47:23;;;;;;;3.65;1.30;;;11.20;54.30;;;;;;5033481;28;20471;-74